Wetterdaten: aktuell Dienstag, 23.10.2018 16:54
Datum Zeit Temp. A. Feuchte A. Luftdruck Regen Wind Richtung Richtung Taupunkt Windchill Windben
23.10.2018 16:54 10,6 C 67 % 1026,9 hPa 0,0 l/m 11,3 km/h (2 Bft) W-SW 247 4,7 C 7,6 C 16,1 km/h (3 Bft)
23.10.2018 15:54 9,8 C 72 % 1026,9 hPa 0,0 l/m 19,3 km/h (3 Bft) SW 225 5,0 C 3,3 C 22,5 km/h (4 Bft)
23.10.2018 14:54 11,3 C 65 % 1027,9 hPa 0,0 l/m 24,1 km/h (4 Bft) SW 225 5,0 C 3,8 C 30,6 km/h (5 Bft)
23.10.2018 13:54 11,7 C 66 % 1028,8 hPa 0,0 l/m 12,9 km/h (3 Bft) SW 225 5,6 C 8,1 C 19,3 km/h (3 Bft)
23.10.2018 12:54 12,1 C 68 % 1029,6 hPa 0,0 l/m 14,5 km/h (3 Bft) W 270 6,4 C 7,9 C 19,3 km/h (3 Bft)
23.10.2018 11:54 10,8 C 74 % 1031,0 hPa 0,0 l/m 12,9 km/h (3 Bft) W-SW 247 6,4 C 7,0 C 16,1 km/h (3 Bft)
23.10.2018 10:54 9,5 C 80 % 1032,0 hPa 0,0 l/m 12,9 km/h (3 Bft) SW 225 6,2 C 5,5 C 19,3 km/h (3 Bft)
23.10.2018 09:54 8,8 C 83 % 1032,4 hPa 0,0 l/m 14,5 km/h (3 Bft) SW 225 6,1 C 3,9 C 24,1 km/h (4 Bft)
23.10.2018 08:54 7,4 C 86 % 1033,1 hPa 0,0 l/m 9,7 km/h (2 Bft) W 270 5,2 C 4,9 C 16,1 km/h (3 Bft)
23.10.2018 07:54 5,7 C 93 % 1032,6 hPa 0,0 l/m 9,7 km/h (2 Bft) S-SW 202 4,7 C 3,1 C 11,3 km/h (2 Bft)
23.10.2018 06:54 3,8 C 93 % 1033,0 hPa 0,0 l/m 9,7 km/h (2 Bft) SW 225 2,8 C 1,0 C 11,3 km/h (2 Bft)
23.10.2018 05:54 5,3 C 91 % 1033,6 hPa 0,0 l/m 6,4 km/h (2 Bft) SW 225 4,0 C 5,3 C 8,0 km/h (2 Bft)
23.10.2018 04:54 5,5 C 92 % 1034,1 hPa 0,0 l/m 6,4 km/h (2 Bft) S-SW 202 4,3 C 5,5 C 8,0 km/h (2 Bft)
23.10.2018 03:54 4,1 C 93 % 1034,3 hPa 0,0 l/m 4,8 km/h (1 Bft) SW 225 3,1 C 4,1 C 6,4 km/h (2 Bft)
23.10.2018 02:54 5,2 C 90 % 1034,7 hPa 0,0 l/m 6,4 km/h (2 Bft) S-SW 202 3,7 C 5,2 C 6,4 km/h (2 Bft)
23.10.2018 01:54 4,4 C 90 % 1034,7 hPa 0,0 l/m 3,2 km/h (1 Bft) S-SW 202 2,9 C 4,4 C 4,8 km/h (1 Bft)
23.10.2018 00:54 5,0 C 92 % 1035,1 hPa 0,0 l/m 4,8 km/h (1 Bft) SW 225 3,8 C 5,0 C 4,8 km/h (1 Bft)
22.10.2018 23:54 4,1 C 91 % 1035,2 hPa 0,0 l/m 1,6 km/h (1 Bft) SW 225 2,8 C 4,1 C 3,2 km/h (1 Bft)
22.10.2018 22:54 4,7 C 89 % 1035,3 hPa 0,0 l/m 4,8 km/h (1 Bft) S-SW 202 3,0 C 4,7 C 6,4 km/h (2 Bft)
22.10.2018 21:54 6,6 C 88 % 1035,3 hPa 0,0 l/m 3,2 km/h (1 Bft) SW 225 4,8 C 6,6 C 4,8 km/h (1 Bft)
22.10.2018 20:54 6,2 C 88 % 1035,3 hPa 0,0 l/m 4,8 km/h (1 Bft) SW 225 4,4 C 6,2 C 6,4 km/h (2 Bft)
22.10.2018 19:54 5,4 C 89 % 1034,7 hPa 0,0 l/m 4,8 km/h (1 Bft) SW 225 3,7 C 5,4 C 4,8 km/h (1 Bft)
22.10.2018 18:54 4,8 C 87 % 1034,1 hPa 0,0 l/m 1,6 km/h (1 Bft) N-NW 337 2,8 C 4,8 C 3,2 km/h (1 Bft)
22.10.2018 17:54 6,3 C 81 % 1033,6 hPa 0,0 l/m 0,0 km/h (0 Bft) N 0 3,3 C 6,3 C 0,0 km/h (0 Bft)
22.10.2018 17:00 9,1 C 75 % 1033,0 hPa 0,0 l/m 0,0 km/h (0 Bft) N 0 4,9 C 9,1 C 0,0 km/h (0 Bft)
_ Min-Zeit 00:01 14:41 16:36 - 17:00 - - 00:01 08:11 17:00
Minimum _ 3,3 C 64 % 1026,5 hPa - 0,0 km/h (0 Bft) - - 1,8 C -2,5 C 0,0 km/h (0 Bft)
_ Max-Zeit 12:54 07:20 00:19 17:00 14:40 - - 11:33 16:24 14:40
Maximum _ 12,1 C 94 % 1035,7 hPa 0,0 l/m 27,4 km/h
SW (4 Bft)
- - 7,1 C 10,4 C 40,2 km/h
W-SW (6 Bft)
Durchschnitt _ 7,1 C 83 % 1032,8 hPa #0,0 l/m 8,1 km/h (2 Bft) SW - 4,4 C 5,2 C 10,8 km/h (2 Bft)